createdAt,value
2022-12-08T00:01:33.579Z,13.93
2022-12-08T00:04:05.737Z,13.91
2022-12-08T00:07:00.860Z,13.88
2022-12-08T00:10:10.346Z,13.83
2022-12-08T00:12:47.475Z,13.77
2022-12-08T00:15:19.024Z,13.70
2022-12-08T00:17:50.706Z,13.62
2022-12-08T00:20:20.180Z,13.49
2022-12-08T00:22:48.716Z,13.37
2022-12-08T00:25:26.357Z,13.30
2022-12-08T00:27:57.541Z,13.22
2022-12-08T00:30:25.957Z,13.15
2022-12-08T00:33:08.915Z,13.05
2022-12-08T00:35:43.222Z,12.98
2022-12-08T00:38:23.241Z,12.90
2022-12-08T00:40:54.724Z,12.86
2022-12-08T00:43:23.206Z,12.81
2022-12-08T00:45:52.881Z,12.77
2022-12-08T00:48:21.595Z,12.70
2022-12-08T00:50:49.992Z,12.64
2022-12-08T00:53:22.357Z,12.57
2022-12-08T00:55:54.657Z,12.48
2022-12-08T00:58:23.383Z,12.40
2022-12-08T01:00:52.040Z,12.34
2022-12-08T01:03:24.047Z,12.26
2022-12-08T01:08:52.559Z,12.08
2022-12-08T01:11:21.750Z,12.02
2022-12-08T01:13:53.272Z,11.98
2022-12-08T01:16:26.989Z,11.96
2022-12-08T01:18:55.989Z,11.92
2022-12-08T01:21:30.254Z,11.89
2022-12-08T01:24:04.720Z,11.90
2022-12-08T01:26:33.287Z,11.88
2022-12-08T01:29:10.936Z,11.86
2022-12-08T01:31:42.296Z,11.81
2022-12-08T01:34:16.156Z,11.77
2022-12-08T01:36:48.803Z,11.72
2022-12-08T01:39:20.496Z,11.65
2022-12-08T01:41:49.531Z,11.51
2022-12-08T01:44:23.404Z,11.44
2022-12-08T01:46:54.931Z,11.37
2022-12-08T01:49:52.133Z,11.29
2022-12-08T01:55:21.745Z,11.06
2022-12-08T02:11:42.117Z,10.97
2022-12-08T02:14:23.889Z,10.90
2022-12-08T02:18:02.595Z,10.87
2022-12-08T02:20:54.460Z,10.78
2022-12-08T02:23:58.927Z,10.73
2022-12-08T02:27:03.428Z,10.70
2022-12-08T02:36:56.424Z,10.60
2022-12-08T02:40:01.772Z,10.58
2022-12-08T02:43:04.900Z,10.58
2022-12-08T02:45:50.194Z,10.58
2022-12-08T02:48:18.560Z,10.57
2022-12-08T02:50:49.679Z,10.56
2022-12-08T02:53:20.833Z,10.53
2022-12-08T02:56:24.059Z,10.48
2022-12-08T02:59:25.286Z,10.25
2022-12-08T03:02:12.784Z,10.04
2022-12-08T03:05:19.308Z,9.91
2022-12-08T03:07:58.889Z,9.79
2022-12-08T03:10:27.203Z,9.71
2022-12-08T03:13:06.965Z,9.67
2022-12-08T03:15:48.567Z,9.63
2022-12-08T03:18:20.161Z,9.56
2022-12-08T03:20:54.752Z,9.54
2022-12-08T03:23:23.804Z,9.58
2022-12-08T03:26:24.858Z,9.62
2022-12-08T03:28:59.142Z,9.58
2022-12-08T03:31:30.052Z,9.61
2022-12-08T03:34:08.504Z,9.59
2022-12-08T03:36:40.087Z,9.58
2022-12-08T03:39:10.406Z,9.50
2022-12-08T03:41:44.611Z,9.42
2022-12-08T03:44:15.336Z,9.38
2022-12-08T03:46:46.277Z,9.32
2022-12-08T03:49:14.702Z,9.28
2022-12-08T03:51:49.359Z,9.28
2022-12-08T03:54:17.700Z,9.23
2022-12-08T03:56:46.101Z,9.17
2022-12-08T03:59:17.432Z,9.08
2022-12-08T04:01:45.832Z,9.07
2022-12-08T04:04:14.186Z,9.05
2022-12-08T04:06:42.794Z,9.11
2022-12-08T04:09:11.062Z,9.23
2022-12-08T04:11:39.565Z,9.24
2022-12-08T04:14:08.174Z,9.20
2022-12-08T04:16:36.566Z,9.15
2022-12-08T04:19:04.913Z,9.16
2022-12-08T04:21:33.246Z,9.28
2022-12-08T04:24:01.795Z,9.42
2022-12-08T04:26:30.447Z,9.63
2022-12-08T04:28:58.864Z,9.72
2022-12-08T04:31:27.217Z,9.67
2022-12-08T04:33:55.577Z,9.52
2022-12-08T04:36:23.912Z,9.37
2022-12-08T04:38:52.845Z,9.29
2022-12-08T04:41:23.243Z,9.16
2022-12-08T04:43:51.631Z,9.07
2022-12-08T04:46:20.029Z,9.00
2022-12-08T04:48:48.413Z,8.95
2022-12-08T04:51:18.682Z,8.90
2022-12-08T04:53:48.053Z,8.87
2022-12-08T04:56:20.299Z,8.83
2022-12-08T04:58:48.713Z,8.76
2022-12-08T05:01:17.167Z,8.72
2022-12-08T05:03:45.669Z,8.69
2022-12-08T05:06:15.460Z,8.67
2022-12-08T05:08:46.539Z,8.65
2022-12-08T05:11:15.501Z,8.65
2022-12-08T05:13:47.005Z,8.69
2022-12-08T05:16:16.303Z,8.67
2022-12-08T05:18:45.124Z,8.66
2022-12-08T05:21:16.087Z,8.64
2022-12-08T05:23:44.424Z,8.61
2022-12-08T05:26:12.664Z,8.58
2022-12-08T05:28:45.441Z,8.57
2022-12-08T05:31:15.863Z,8.52
2022-12-08T05:33:45.298Z,8.52
2022-12-08T05:36:18.666Z,8.55
2022-12-08T05:38:47.819Z,8.57
2022-12-08T05:41:21.623Z,8.53
2022-12-08T05:43:50.439Z,8.40
2022-12-08T05:46:18.928Z,8.34
2022-12-08T05:48:50.119Z,8.31
2022-12-08T05:51:24.407Z,8.27
2022-12-08T05:53:53.943Z,8.25
2022-12-08T05:56:23.058Z,8.27
2022-12-08T05:58:51.883Z,8.27
2022-12-08T06:01:31.841Z,8.27
2022-12-08T06:04:02.431Z,8.24
2022-12-08T06:06:31.457Z,8.29
2022-12-08T06:08:59.790Z,8.43
2022-12-08T06:11:30.766Z,8.44
2022-12-08T06:13:59.675Z,8.35
2022-12-08T06:16:29.053Z,8.28
2022-12-08T06:18:58.357Z,8.24
2022-12-08T06:21:26.717Z,8.20
2022-12-08T06:23:57.208Z,8.17
2022-12-08T06:26:25.808Z,8.15
2022-12-08T06:28:54.472Z,8.15
2022-12-08T06:31:25.724Z,8.14
2022-12-08T06:33:55.983Z,8.12
2022-12-08T06:36:28.663Z,8.11
2022-12-08T06:38:57.568Z,8.10
2022-12-08T06:41:26.030Z,8.10
2022-12-08T06:43:58.354Z,8.13
2022-12-08T06:46:26.654Z,8.17
2022-12-08T06:48:55.207Z,8.22
2022-12-08T06:51:26.614Z,8.30
2022-12-08T06:53:54.967Z,8.30
2022-12-08T06:56:25.403Z,8.25
2022-12-08T06:58:53.716Z,8.17
2022-12-08T07:01:22.281Z,8.11
2022-12-08T07:03:50.785Z,8.07
2022-12-08T07:06:25.034Z,8.09
2022-12-08T07:08:53.840Z,8.16
2022-12-08T07:11:22.802Z,8.15
2022-12-08T07:13:51.982Z,8.13
2022-12-08T07:16:20.392Z,8.08
2022-12-08T07:18:48.659Z,8.00
2022-12-08T07:21:17.693Z,7.97
2022-12-08T07:23:56.017Z,8.01
2022-12-08T07:26:27.695Z,8.00
2022-12-08T07:28:57.729Z,7.95
2022-12-08T07:31:27.619Z,7.87
2022-12-08T07:33:59.687Z,7.80
2022-12-08T07:36:31.951Z,7.75
2022-12-08T07:39:01.055Z,7.70
2022-12-08T07:41:29.401Z,7.65
2022-12-08T07:43:58.382Z,7.62
2022-12-08T07:46:27.661Z,7.64
2022-12-08T07:48:56.550Z,7.70
2022-12-08T07:51:26.059Z,7.73
2022-12-08T07:53:55.145Z,7.68
2022-12-08T07:56:24.746Z,7.64
2022-12-08T07:58:52.981Z,7.61
2022-12-08T08:01:24.421Z,7.56
2022-12-08T08:03:53.416Z,7.53
2022-12-08T08:06:21.819Z,7.50
2022-12-08T08:08:50.023Z,7.48
2022-12-08T08:11:21.276Z,7.47
2022-12-08T08:13:52.873Z,7.53
2022-12-08T08:16:21.726Z,7.63
2022-12-08T08:18:52.140Z,7.70
2022-12-08T08:21:44.243Z,7.68
2022-12-08T08:24:10.242Z,7.59
2022-12-08T08:26:41.011Z,7.53
2022-12-08T08:29:09.365Z,7.46
2022-12-08T08:31:37.841Z,7.45
2022-12-08T08:34:07.142Z,7.47
2022-12-08T08:36:36.020Z,7.65
2022-12-08T08:39:05.433Z,7.93
2022-12-08T08:41:34.175Z,8.18
2022-12-08T08:44:02.645Z,8.34
2022-12-08T08:46:30.937Z,8.30
2022-12-08T08:48:59.313Z,8.20
2022-12-08T08:51:27.573Z,8.07
2022-12-08T08:53:55.837Z,7.96
2022-12-08T08:56:24.351Z,7.87
2022-12-08T08:58:54.098Z,7.80
2022-12-08T09:01:29.008Z,7.74
2022-12-08T09:03:58.042Z,7.71
2022-12-08T09:06:26.835Z,7.68
2022-12-08T09:08:55.280Z,7.64
2022-12-08T09:11:24.319Z,7.62
2022-12-08T09:13:54.259Z,7.63
2022-12-08T09:16:23.755Z,7.67
2022-12-08T09:18:52.186Z,7.77
2022-12-08T09:21:27.019Z,8.06
2022-12-08T09:23:57.621Z,8.34
2022-12-08T09:26:27.326Z,8.51
2022-12-08T09:28:56.579Z,8.46
2022-12-08T09:31:25.827Z,8.32
2022-12-08T09:33:54.382Z,8.14
2022-12-08T09:36:23.426Z,7.98
2022-12-08T09:38:53.064Z,7.91
2022-12-08T09:41:30.832Z,7.83
2022-12-08T09:44:16.439Z,7.74
2022-12-08T09:46:44.972Z,7.66
2022-12-08T09:49:17.863Z,7.62
2022-12-08T09:51:49.368Z,7.59
2022-12-08T09:54:19.718Z,7.53
2022-12-08T09:56:50.931Z,7.47
2022-12-08T09:59:31.654Z,7.42
2022-12-08T10:02:02.193Z,7.36
2022-12-08T10:04:34.927Z,7.30
2022-12-08T10:07:36.793Z,7.27
2022-12-08T10:10:51.695Z,7.30
2022-12-08T10:13:56.422Z,7.38
2022-12-08T10:16:40.212Z,7.31
2022-12-08T10:19:20.149Z,7.22
2022-12-08T10:21:48.723Z,7.13
2022-12-08T10:24:42.432Z,7.10
2022-12-08T10:27:14.309Z,7.06
2022-12-08T10:29:42.831Z,7.00
2022-12-08T10:32:23.761Z,6.97
2022-12-08T10:35:05.132Z,6.96
2022-12-08T10:37:34.785Z,6.98
2022-12-08T10:40:15.216Z,7.11
2022-12-08T10:45:45.865Z,7.05
2022-12-08T10:48:20.260Z,7.00
2022-12-08T10:50:56.608Z,6.96
2022-12-08T10:53:28.945Z,6.90
2022-12-08T10:56:02.739Z,6.87
2022-12-08T10:58:34.770Z,6.83
2022-12-08T11:01:25.896Z,6.78
2022-12-08T11:03:58.830Z,6.87
2022-12-08T11:06:37.099Z,7.02
2022-12-08T11:09:23.055Z,7.06
2022-12-08T11:12:07.661Z,7.00
2022-12-08T11:15:03.995Z,6.90
2022-12-08T11:17:44.798Z,6.85
2022-12-08T11:20:13.000Z,6.78
2022-12-08T11:22:43.941Z,6.75
2022-12-08T11:25:19.264Z,6.70
2022-12-08T11:27:50.660Z,6.66
2022-12-08T11:30:29.100Z,6.65
2022-12-08T11:33:02.477Z,6.61
2022-12-08T11:35:38.822Z,6.60
2022-12-08T11:38:22.969Z,6.59
2022-12-08T11:41:00.077Z,6.57
2022-12-08T11:43:45.621Z,6.53
2022-12-08T11:46:20.971Z,6.45
2022-12-08T11:48:49.570Z,6.39
2022-12-08T11:51:45.320Z,6.43
2022-12-08T11:54:25.394Z,6.46
2022-12-08T11:56:59.869Z,6.50
2022-12-08T11:59:39.251Z,6.53
2022-12-08T12:02:18.353Z,6.55
2022-12-08T12:06:03.325Z,6.60
2022-12-08T12:08:27.907Z,6.63
2022-12-08T12:11:34.339Z,6.68
2022-12-08T12:14:13.203Z,6.74
2022-12-08T12:17:15.246Z,6.80
2022-12-08T12:19:43.151Z,6.79
2022-12-08T12:22:23.992Z,6.83
2022-12-08T12:24:54.215Z,6.83
2022-12-08T12:27:33.628Z,6.87
2022-12-08T12:30:07.802Z,6.89
2022-12-08T12:32:55.565Z,6.92
2022-12-08T12:35:58.144Z,6.95
2022-12-08T12:38:53.278Z,7.01
2022-12-08T12:41:47.575Z,7.05
2022-12-08T12:44:16.693Z,7.05
2022-12-08T12:46:49.235Z,7.08
2022-12-08T12:49:41.581Z,7.14
2022-12-08T12:52:27.226Z,7.22
2022-12-08T12:54:58.558Z,7.23
2022-12-08T12:57:38.243Z,7.30
2022-12-08T13:00:09.445Z,7.34
2022-12-08T13:02:38.903Z,7.37
2022-12-08T13:05:18.122Z,7.46
2022-12-08T13:08:09.547Z,7.48
2022-12-08T13:10:49.578Z,7.50
2022-12-08T13:13:27.539Z,7.50
2022-12-08T13:16:22.274Z,7.62
2022-12-08T13:21:39.824Z,7.66
2022-12-08T13:28:00.919Z,7.88
2022-12-08T13:30:54.012Z,7.95
2022-12-08T13:33:27.659Z,7.98
2022-12-08T13:36:34.054Z,8.03
2022-12-08T13:39:04.127Z,8.09
2022-12-08T13:41:49.253Z,8.12
2022-12-08T13:47:33.826Z,8.11
2022-12-08T13:50:55.697Z,8.12
2022-12-08T13:58:49.793Z,7.76
2022-12-08T14:01:24.044Z,7.70
2022-12-08T14:04:33.749Z,7.67
2022-12-08T14:06:49.872Z,7.74
2022-12-08T14:09:23.982Z,7.79
2022-12-08T14:12:04.559Z,7.82
2022-12-08T14:15:10.872Z,7.77
2022-12-08T14:17:29.752Z,7.77
2022-12-08T14:20:25.193Z,7.77
2022-12-08T14:22:54.537Z,7.76
2022-12-08T14:25:25.202Z,7.81
2022-12-08T14:28:02.675Z,7.85
2022-12-08T14:30:34.001Z,7.89
2022-12-08T14:33:04.892Z,7.90
2022-12-08T14:35:38.389Z,7.93
2022-12-08T14:38:27.286Z,7.96
2022-12-08T14:41:10.005Z,7.92
2022-12-08T14:43:38.335Z,7.84
2022-12-08T14:46:21.696Z,7.78
2022-12-08T14:48:50.118Z,7.80
2022-12-08T14:51:24.474Z,7.88
2022-12-08T14:54:01.319Z,7.91
2022-12-08T14:56:56.657Z,7.83
2022-12-08T14:59:32.607Z,7.82
2022-12-08T15:02:29.489Z,7.87
2022-12-08T15:05:11.972Z,7.89
2022-12-08T15:08:07.314Z,7.87
2022-12-08T15:10:52.077Z,7.79
2022-12-08T15:13:26.218Z,7.79
2022-12-08T15:16:31.563Z,7.87
2022-12-08T15:19:29.330Z,7.94
2022-12-08T15:22:00.756Z,7.98
2022-12-08T15:24:32.016Z,8.05
2022-12-08T15:27:00.949Z,8.07
2022-12-08T15:29:31.207Z,8.07
2022-12-08T15:32:02.372Z,8.02
2022-12-08T15:34:32.472Z,7.98
2022-12-08T15:37:00.827Z,7.99
2022-12-08T15:39:38.112Z,8.07
2022-12-08T15:42:13.295Z,8.07
2022-12-08T15:44:44.908Z,8.00
2022-12-08T15:47:23.201Z,8.02
2022-12-08T15:49:56.088Z,8.05
2022-12-08T15:52:26.235Z,8.07
2022-12-08T15:54:55.655Z,8.07
2022-12-08T16:04:19.904Z,8.19
2022-12-08T16:09:21.992Z,8.28
2022-12-08T16:12:10.122Z,8.33
2022-12-08T16:15:47.339Z,8.40
2022-12-08T16:17:29.862Z,8.46
2022-12-08T16:19:58.540Z,8.52
2022-12-08T16:22:52.741Z,8.56
2022-12-08T16:25:20.000Z,8.59
2022-12-08T16:28:29.591Z,8.60
2022-12-08T16:33:22.025Z,8.59
2022-12-08T16:35:50.364Z,8.57
2022-12-08T16:38:18.728Z,8.61
2022-12-08T16:41:08.066Z,8.69
2022-12-08T16:43:36.817Z,8.75
2022-12-08T16:46:05.846Z,8.80
2022-12-08T16:48:34.197Z,8.85
2022-12-08T16:51:05.271Z,8.88
2022-12-08T16:53:33.477Z,8.90
2022-12-08T16:56:01.830Z,8.92
2022-12-08T16:58:30.931Z,8.94
2022-12-08T17:00:59.266Z,8.97
2022-12-08T17:03:27.658Z,8.98
2022-12-08T17:05:55.899Z,8.99
2022-12-08T17:08:24.201Z,9.03
2022-12-08T17:11:08.072Z,9.06
2022-12-08T17:13:42.391Z,9.11
2022-12-08T17:16:14.519Z,9.14
2022-12-08T17:18:43.095Z,9.16
2022-12-08T17:21:13.194Z,9.20
2022-12-08T17:23:42.363Z,9.22
2022-12-08T17:26:11.729Z,9.26
2022-12-08T17:28:59.625Z,9.32
2022-12-08T17:31:30.370Z,9.37
2022-12-08T17:34:11.895Z,9.42
2022-12-08T17:36:40.166Z,9.48
2022-12-08T17:39:13.459Z,9.53
2022-12-08T17:41:46.251Z,9.59
2022-12-08T17:44:17.212Z,9.64
2022-12-08T17:46:52.143Z,9.70
2022-12-08T17:49:26.760Z,9.76
2022-12-08T17:51:58.503Z,9.82
2022-12-08T17:54:27.673Z,9.90
2022-12-08T17:56:59.377Z,9.96
2022-12-08T17:59:29.398Z,10.04
2022-12-08T18:01:58.618Z,10.10
2022-12-08T18:04:27.865Z,10.20
2022-12-08T18:06:56.426Z,10.31
2022-12-08T18:09:24.776Z,10.40
2022-12-08T18:11:53.196Z,10.46
2022-12-08T18:14:21.751Z,10.52
2022-12-08T18:16:50.243Z,10.56
2022-12-08T18:19:19.151Z,10.63
2022-12-08T18:21:47.559Z,10.70
2022-12-08T18:24:24.655Z,10.79
2022-12-08T18:26:53.823Z,10.85
2022-12-08T18:29:23.554Z,10.94
2022-12-08T18:31:52.698Z,11.03
2022-12-08T18:34:21.523Z,11.11
2022-12-08T18:36:50.056Z,11.16
2022-12-08T18:39:37.065Z,11.22
2022-12-08T18:42:23.715Z,11.24
2022-12-08T18:45:00.073Z,11.24
2022-12-08T18:47:28.689Z,11.25
2022-12-08T18:49:57.261Z,11.27
2022-12-08T18:52:31.573Z,11.27
2022-12-08T18:55:08.064Z,11.24
2022-12-08T18:57:39.620Z,11.21
2022-12-08T19:00:12.971Z,11.19
2022-12-08T19:02:42.276Z,11.16
2022-12-08T19:05:18.963Z,11.15
2022-12-08T19:08:04.103Z,11.11
2022-12-08T19:10:38.796Z,11.09
2022-12-08T19:13:08.785Z,11.11
2022-12-08T19:15:37.184Z,11.13
2022-12-08T19:18:05.844Z,11.16
2022-12-08T19:20:34.148Z,11.16
2022-12-08T19:23:02.396Z,11.16
2022-12-08T19:25:34.343Z,11.16
2022-12-08T19:28:02.701Z,11.16
2022-12-08T19:30:34.366Z,11.18
2022-12-08T19:35:34.152Z,11.16
2022-12-08T19:38:05.619Z,11.20
2022-12-08T19:40:51.816Z,11.22
2022-12-08T19:44:01.229Z,11.27
2022-12-08T19:46:30.120Z,11.27
2022-12-08T19:48:59.319Z,11.25
2022-12-08T19:51:30.686Z,11.22
2022-12-08T19:54:02.129Z,11.21
2022-12-08T19:56:32.856Z,11.22
2022-12-08T19:59:01.356Z,11.24
2022-12-08T20:01:30.726Z,11.28
2022-12-08T20:04:02.185Z,11.34
2022-12-08T20:06:30.279Z,11.37
2022-12-08T20:09:01.566Z,11.40
2022-12-08T20:11:32.629Z,11.43
2022-12-08T20:14:01.347Z,11.43
2022-12-08T20:17:01.273Z,11.45
2022-12-08T20:19:30.127Z,11.44
2022-12-08T20:21:58.597Z,11.45
2022-12-08T20:25:03.738Z,11.48
2022-12-08T20:27:34.369Z,11.49
2022-12-08T20:30:02.723Z,11.50
2022-12-08T20:32:31.225Z,11.52
2022-12-08T20:34:59.842Z,11.55
2022-12-08T20:37:28.418Z,11.58
2022-12-08T20:39:56.848Z,11.60
2022-12-08T20:42:25.312Z,11.62
2022-12-08T20:44:53.979Z,11.64
2022-12-08T20:47:22.509Z,11.66
2022-12-08T20:49:51.506Z,11.68
2022-12-08T20:52:20.146Z,11.72
2022-12-08T20:54:48.675Z,11.75
2022-12-08T20:57:17.010Z,11.74
2022-12-08T20:59:45.608Z,11.75
2022-12-08T21:02:14.015Z,11.75
2022-12-08T21:04:42.919Z,11.76
2022-12-08T21:07:11.549Z,11.77
2022-12-08T21:09:39.847Z,11.80
2022-12-08T21:12:08.751Z,11.81
2022-12-08T21:14:37.377Z,11.83
2022-12-08T21:17:06.136Z,11.83
2022-12-08T21:19:34.816Z,11.85
2022-12-08T21:22:03.418Z,11.89
2022-12-08T21:24:34.360Z,11.91
2022-12-08T21:27:03.270Z,11.91
2022-12-08T21:29:31.902Z,11.94
2022-12-08T21:32:01.497Z,11.95
2022-12-08T21:34:34.963Z,11.95
2022-12-08T21:37:03.797Z,11.96
2022-12-08T21:39:32.836Z,11.98
2022-12-08T21:42:22.722Z,11.98
2022-12-08T21:44:51.548Z,12.02
2022-12-08T21:47:20.188Z,12.05
2022-12-08T21:49:51.175Z,12.09
2022-12-08T21:52:19.947Z,12.08
2022-12-08T21:54:50.348Z,12.11
2022-12-08T21:57:18.968Z,12.11
2022-12-08T21:59:47.459Z,12.11
2022-12-08T22:02:22.344Z,12.10
2022-12-08T22:04:51.532Z,12.10
2022-12-08T22:07:21.685Z,12.08
2022-12-08T22:09:50.245Z,12.09
2022-12-08T22:12:18.972Z,12.09
2022-12-08T22:14:47.924Z,12.08
2022-12-08T22:17:17.590Z,12.08
2022-12-08T22:19:46.437Z,12.07
2022-12-08T22:22:14.766Z,12.06
2022-12-08T22:24:43.275Z,12.08
2022-12-08T22:27:11.635Z,12.08
2022-12-08T22:29:39.978Z,12.07
2022-12-08T22:32:08.243Z,12.07
2022-12-08T22:34:36.757Z,12.08
2022-12-08T22:37:05.244Z,12.10
2022-12-08T22:39:33.699Z,12.05
2022-12-08T22:42:01.939Z,12.03
2022-12-08T22:44:30.669Z,12.03
2022-12-08T22:46:58.973Z,12.04
2022-12-08T22:49:27.640Z,12.02
2022-12-08T22:51:55.977Z,11.99
2022-12-08T22:54:24.359Z,11.99
2022-12-08T22:56:52.756Z,11.97
2022-12-08T22:59:21.028Z,11.97
2022-12-08T23:01:49.427Z,11.96
2022-12-08T23:04:18.511Z,11.95
2022-12-08T23:06:46.995Z,11.92
2022-12-08T23:09:15.929Z,11.88
2022-12-08T23:11:44.893Z,11.84
2022-12-08T23:14:13.124Z,11.82
2022-12-08T23:16:47.206Z,11.78
2022-12-08T23:19:16.131Z,11.74
2022-12-08T23:21:44.472Z,11.71
2022-12-08T23:24:13.025Z,11.68
2022-12-08T23:26:43.864Z,11.67
2022-12-08T23:29:12.202Z,11.62
2022-12-08T23:31:59.162Z,11.58
2022-12-08T23:34:33.648Z,11.48
2022-12-08T23:37:02.183Z,11.42
2022-12-08T23:39:35.663Z,11.38
2022-12-08T23:42:06.685Z,11.31
2022-12-08T23:44:38.090Z,11.26
2022-12-08T23:47:06.624Z,11.22
2022-12-08T23:52:34.003Z,11.27
